Terminal Aerodrome Forecast
Issued by NWS

Home | Current Version | Previous Version | Text Only | Print | Product List | Glossary On
Versions: 1 2 3 4 5 6 7 8 9 10 11 12 13 14 15 16 17 18
000
FTUS43 KAPX 171120
TAFTVC
TAF
KTVC 171120Z 1712/1812 22014G24KT P6SM FEW250 WS020/24040KT
     FM171300 22014G23KT P6SM FEW250
     FM171700 25012G20KT P6SM FEW200
     FM172200 23008KT P6SM FEW250
     FM180200 20007KT P6SM SKC=

USA.gov is the U.S. government's official web portal to all federal, state and local government web resources and services.